Time;durP1;ratioP1;P1;durP2;ratioP2;P2;SDS_P1;SDS_P2;PMS_P1;PMS_P2;Temp;Humidity;BMP_temperature;BMP_pressure;BME280_temperature;BME280_humidity;BME280_pressure;Samples;Min_cycle;Max_cycle;Signal;HPM_P1;HPM_P2
2021/12/16 00:09:14;;;;;;;20.98;13.32;;;8.70;99.90;;;;;;5030491;28;20123;-63
2021/12/16 00:33:15;;;;;;;19.08;11.90;;;8.70;99.90;;;;;;5031457;28;20040;-61
2021/12/16 00:35:44;;;;;;;22.58;13.60;;;8.60;99.90;;;;;;5030972;28;20040;-66
2021/12/16 00:38:10;;;;;;;17.25;11.77;;;8.60;99.90;;;;;;5031561;28;20057;-62
2021/12/16 00:40:40;;;;;;;19.88;12.70;;;8.60;99.90;;;;;;5030623;28;20037;-62
2021/12/16 00:43:17;;;;;;;20.70;12.60;;;8.50;99.90;;;;;;5031415;28;20025;-55
2021/12/16 00:46:43;;;;;;;18.73;11.93;;;8.50;99.90;;;;;;5031198;28;20028;-66
2021/12/16 00:49:19;;;;;;;16.45;11.13;;;8.50;99.90;;;;;;5022982;28;20115;-61
2021/12/16 00:54:11;;;;;;;15.88;10.98;;;8.60;99.90;;;;;;5031144;28;20056;-66
2021/12/16 00:56:46;;;;;;;19.00;11.35;;;8.50;99.90;;;;;;5030438;28;20040;-59
2021/12/16 00:59:14;;;;;;;19.05;11.93;;;8.50;99.90;;;;;;5029797;28;20104;-68
2021/12/16 01:01:54;;;;;;;17.73;12.55;;;8.50;99.90;;;;;;5029210;28;20391;-60
2021/12/16 01:07:24;;;;;;;17.85;10.90;;;8.50;99.90;;;;;;5030553;28;20034;-60
2021/12/16 01:46:03;;;;;;;16.38;11.77;;;8.40;99.90;;;;;;5033907;28;20030;-60
2021/12/16 01:48:38;;;;;;;18.80;12.00;;;8.40;99.90;;;;;;5032440;28;20128;-62
2021/12/16 01:50:54;;;;;;;15.45;10.65;;;8.40;99.90;;;;;;5032736;28;20025;-61
2021/12/16 01:56:53;;;;;;;17.63;10.65;;;8.40;99.90;;;;;;5033244;28;20021;-65
2021/12/16 01:58:48;;;;;;;16.38;10.38;;;8.40;99.90;;;;;;5025635;28;20049;-61
2021/12/16 02:01:19;;;;;;;20.65;11.02;;;8.40;99.90;;;;;;5032366;28;20028;-60
2021/12/16 02:03:54;;;;;;;17.58;11.30;;;8.40;99.90;;;;;;5033156;28;20041;-60
2021/12/16 02:09:33;;;;;;;16.50;11.27;;;8.50;99.90;;;;;;5033599;28;20029;-64
2021/12/16 02:12:13;;;;;;;16.08;9.90;;;8.50;99.90;;;;;;5032998;28;20064;-65
2021/12/16 02:31:19;;;;;;;15.77;10.90;;;8.20;99.90;;;;;;5032493;28;20132;-60
2021/12/16 02:34:15;;;;;;;19.02;11.27;;;8.20;99.90;;;;;;5032104;28;20528;-66
2021/12/16 02:36:45;;;;;;;16.52;11.57;;;8.30;99.90;;;;;;5031528;28;20029;-58
2021/12/16 02:39:30;;;;;;;18.38;11.57;;;8.30;99.90;;;;;;5032979;28;20059;-63
2021/12/16 02:42:04;;;;;;;14.95;11.25;;;8.30;99.90;;;;;;5031049;28;20443;-57
2021/12/16 02:44:41;;;;;;;21.42;11.77;;;8.30;99.90;;;;;;5032681;28;20029;-63
2021/12/16 02:50:13;;;;;;;17.33;11.40;;;8.30;99.90;;;;;;5010739;28;20109;-62
2021/12/16 02:52:39;;;;;;;17.50;11.00;;;8.30;99.90;;;;;;5022778;28;20148;-70
2021/12/16 02:55:08;;;;;;;17.42;11.18;;;8.30;99.90;;;;;;5032553;28;20482;-60
2021/12/16 02:57:41;;;;;;;16.15;10.73;;;8.30;99.90;;;;;;5032790;28;20095;-64
2021/12/16 03:00:11;;;;;;;16.30;11.40;;;8.30;99.90;;;;;;5032751;28;20045;-58
2021/12/16 03:02:37;;;;;;;17.38;12.23;;;8.40;99.90;;;;;;5031119;28;20170;-55
2021/12/16 03:05:03;;;;;;;16.83;11.13;;;8.40;99.90;;;;;;5031893;28;20135;-58
2021/12/16 03:07:29;;;;;;;15.88;10.85;;;8.40;99.90;;;;;;5032317;28;20026;-60
2021/12/16 03:12:51;;;;;;;16.05;11.30;;;8.30;99.90;;;;;;5032440;28;20064;-65
2021/12/16 03:18:01;;;;;;;17.00;11.48;;;8.20;99.90;;;;;;5031518;28;20104;-61
2021/12/16 03:23:16;;;;;;;16.45;11.77;;;8.20;99.90;;;;;;5031630;28;20021;-59
2021/12/16 03:34:33;;;;;;;15.80;11.45;;;7.90;99.90;;;;;;5007903;28;20037;-60
2021/12/16 03:37:22;;;;;;;20.23;11.48;;;7.90;99.90;;;;;;5031233;28;20112;-58
2021/12/16 03:39:56;;;;;;;15.57;11.90;;;8.00;99.90;;;;;;5031045;28;20486;-65
2021/12/16 03:42:33;;;;;;;18.88;12.55;;;8.00;99.90;;;;;;5030119;28;20032;-61
2021/12/16 03:46:25;;;;;;;18.15;11.88;;;7.90;99.90;;;;;;5029988;28;20074;-61
2021/12/16 03:47:56;;;;;;;18.65;11.63;;;7.80;99.90;;;;;;5030792;28;20157;-55
2021/12/16 03:50:22;;;;;;;17.50;11.35;;;7.90;99.90;;;;;;5031454;28;20034;-61
2021/12/16 03:52:49;;;;;;;22.20;12.27;;;8.10;99.90;;;;;;5031048;28;20025;-65
2021/12/16 03:55:16;;;;;;;18.13;11.68;;;8.10;99.90;;;;;;5031443;28;20439;-58
2021/12/16 03:57:43;;;;;;;16.15;11.07;;;8.10;99.90;;;;;;5030299;28;20033;-58
2021/12/16 04:00:21;;;;;;;18.23;11.05;;;8.10;99.90;;;;;;5030144;28;20079;-52
2021/12/16 04:02:47;;;;;;;18.90;11.82;;;8.10;99.90;;;;;;5030212;28;20489;-64
2021/12/16 04:05:16;;;;;;;17.48;11.40;;;8.00;99.90;;;;;;5031482;28;20026;-59
2021/12/16 04:07:43;;;;;;;18.42;11.85;;;8.10;99.90;;;;;;5031120;28;20052;-55
2021/12/16 04:10:18;;;;;;;17.83;12.07;;;8.10;99.90;;;;;;5031534;28;20037;-55
2021/12/16 04:12:44;;;;;;;16.77;11.77;;;8.10;99.90;;;;;;5030741;28;20378;-66
2021/12/16 04:15:11;;;;;;;15.82;10.65;;;8.10;99.90;;;;;;5031111;28;20028;-57
2021/12/16 04:17:37;;;;;;;17.00;11.38;;;8.20;99.90;;;;;;5030384;28;20026;-55
2021/12/16 04:20:08;;;;;;;18.45;11.65;;;8.10;99.90;;;;;;5031101;28;20382;-65
2021/12/16 04:22:41;;;;;;;17.10;11.93;;;8.10;99.90;;;;;;5030066;28;20121;-56
2021/12/16 04:25:17;;;;;;;16.38;10.82;;;8.10;99.90;;;;;;5030790;28;20025;-58
2021/12/16 04:27:44;;;;;;;20.42;12.00;;;8.10;99.90;;;;;;5030220;28;20076;-63
2021/12/16 04:30:12;;;;;;;17.67;11.77;;;8.10;99.90;;;;;;5031419;28;20030;-60
2021/12/16 04:32:38;;;;;;;16.73;11.38;;;8.20;99.90;;;;;;5031456;28;20463;-60
2021/12/16 04:35:04;;;;;;;17.67;12.07;;;8.10;99.90;;;;;;5030759;28;20083;-58
2021/12/16 04:37:30;;;;;;;18.77;12.68;;;8.10;99.90;;;;;;5029714;28;20044;-58
2021/12/16 04:39:59;;;;;;;16.27;11.65;;;8.10;99.90;;;;;;5030696;28;20029;-61
2021/12/16 04:42:26;;;;;;;20.58;12.88;;;8.10;99.90;;;;;;5029956;28;20378;-57
2021/12/16 04:44:52;;;;;;;21.98;13.13;;;8.10;99.90;;;;;;5029306;28;20242;-61
2021/12/16 04:47:18;;;;;;;18.90;13.02;;;8.10;99.90;;;;;;5030911;28;20033;-59
2021/12/16 04:49:44;;;;;;;17.48;12.27;;;8.10;99.90;;;;;;5029998;28;20025;-65
2021/12/16 04:52:14;;;;;;;17.83;12.65;;;8.10;99.90;;;;;;5033173;28;20030;-59
2021/12/16 04:54:40;;;;;;;19.00;12.63;;;8.10;99.90;;;;;;5033535;28;20508;-55
2021/12/16 04:57:06;;;;;;;19.67;13.98;;;8.10;99.90;;;;;;5034269;28;20025;-54
2021/12/16 04:59:34;;;;;;;18.80;13.10;;;8.00;99.90;;;;;;5033190;28;20036;-64
2021/12/16 05:02:07;;;;;;;16.15;11.70;;;8.10;99.90;;;;;;5032581;28;20120;-58
2021/12/16 05:04:34;;;;;;;23.65;12.40;;;8.10;99.90;;;;;;5033063;28;20079;-57
2021/12/16 05:06:59;;;;;;;16.10;12.40;;;8.10;99.90;;;;;;5034282;28;20030;-53
2021/12/16 05:12:24;;;;;;;17.00;11.70;;;8.10;99.90;;;;;;5034072;28;20037;-58
2021/12/16 05:14:50;;;;;;;17.83;12.07;;;8.20;99.90;;;;;;5033764;28;20021;-60
2021/12/16 05:17:34;;;;;;;18.73;12.57;;;8.10;99.90;;;;;;5016911;28;20036;-60
2021/12/16 05:20:05;;;;;;;17.10;11.77;;;8.10;99.90;;;;;;5033329;28;20136;-60
2021/12/16 05:25:35;;;;;;;21.05;13.77;;;8.10;99.90;;;;;;5034314;28;20394;-60
2021/12/16 05:28:01;;;;;;;23.05;12.60;;;8.00;99.90;;;;;;5032184;28;20398;-62
2021/12/16 05:30:27;;;;;;;20.52;12.63;;;8.10;99.90;;;;;;5032327;28;20107;-59
2021/12/16 05:32:53;;;;;;;17.30;12.20;;;8.10;99.90;;;;;;5032157;28;20472;-61
2021/12/16 05:35:21;;;;;;;16.10;11.88;;;8.10;99.90;;;;;;5032678;28;20060;-61
2021/12/16 05:37:47;;;;;;;18.92;13.30;;;7.90;99.90;;;;;;5034088;28;20032;-60
2021/12/16 05:40:17;;;;;;;32.90;14.13;;;8.10;99.90;;;;;;5033259;28;20036;-61
2021/12/16 05:42:43;;;;;;;22.65;13.15;;;8.00;99.90;;;;;;5032554;28;20056;-60
2021/12/16 05:45:11;;;;;;;20.17;12.25;;;7.90;99.90;;;;;;5033346;28;20033;-61
2021/12/16 05:47:37;;;;;;;19.45;13.30;;;7.70;99.90;;;;;;5032184;28;20064;-60
2021/12/16 05:50:06;;;;;;;25.83;13.73;;;7.70;99.90;;;;;;5033164;28;20036;-62
2021/12/16 05:52:32;;;;;;;22.33;13.35;;;7.70;99.90;;;;;;5033477;28;20018;-60
2021/12/16 05:54:58;;;;;;;21.08;13.85;;;7.90;99.90;;;;;;5033088;28;20037;-61
2021/12/16 05:57:23;;;;;;;21.02;14.32;;;7.80;99.90;;;;;;5033556;28;20033;-59
2021/12/16 05:59:49;;;;;;;18.75;14.05;;;7.80;99.90;;;;;;5032329;28;20037;-61
2021/12/16 06:02:15;;;;;;;21.73;13.57;;;7.80;99.90;;;;;;5033616;28;20034;-61
2021/12/16 06:04:41;;;;;;;20.92;12.93;;;7.80;99.90;;;;;;5033522;28;20509;-60
2021/12/16 06:07:07;;;;;;;17.98;12.15;;;7.80;99.90;;;;;;5033100;28;20025;-60
2021/12/16 06:09:33;;;;;;;18.02;12.27;;;7.90;99.90;;;;;;5033131;28;20344;-62
2021/12/16 06:12:00;;;;;;;22.75;13.65;;;8.00;99.90;;;;;;5032540;28;20026;-61
2021/12/16 06:23:09;;;;;;;19.40;12.20;;;8.10;99.90;;;;;;5033266;28;20086;-61
2021/12/16 06:28:07;;;;;;;19.27;12.20;;;8.10;99.90;;;;;;5032210;28;20102;-61
2021/12/16 06:30:43;;;;;;;21.83;13.07;;;8.20;99.90;;;;;;5033043;28;20036;-61
2021/12/16 06:33:13;;;;;;;20.90;13.50;;;8.20;99.90;;;;;;5030482;28;20491;-62
2021/12/16 06:35:39;;;;;;;23.65;13.57;;;8.20;99.90;;;;;;5030759;28;20215;-60
2021/12/16 06:38:05;;;;;;;31.65;16.08;;;8.20;99.90;;;;;;5030310;28;20044;-62
2021/12/16 06:40:31;;;;;;;34.90;15.77;;;8.20;99.90;;;;;;5030911;28;20026;-62
2021/12/16 06:42:59;;;;;;;21.27;13.35;;;8.10;99.90;;;;;;5032024;28;20026;-62
2021/12/16 06:45:29;;;;;;;24.05;13.32;;;8.10;99.90;;;;;;5031002;28;20037;-63
2021/12/16 06:48:01;;;;;;;28.92;14.88;;;8.10;99.90;;;;;;5030304;28;20034;-61
2021/12/16 06:50:41;;;;;;;;;;;8.00;99.90;;;;;;5031378;28;20037;-61
2021/12/16 06:53:10;;;;;;;24.52;13.93;;;8.10;99.90;;;;;;5030538;28;20278;-61
2021/12/16 06:55:55;;;;;;;21.13;13.52;;;7.90;99.90;;;;;;5030835;28;20439;-61
2021/12/16 07:01:04;;;;;;;21.48;14.23;;;7.80;99.90;;;;;;5032396;28;20386;-61
2021/12/16 07:03:43;;;;;;;22.05;13.38;;;7.80;99.90;;;;;;5031113;28;20332;-62
2021/12/16 07:06:09;;;;;;;22.00;13.48;;;7.70;99.90;;;;;;5031756;28;20433;-61
2021/12/16 07:08:35;;;;;;;24.65;14.55;;;7.70;99.90;;;;;;5031602;28;20116;-60
2021/12/16 07:11:00;;;;;;;24.50;13.32;;;7.80;99.90;;;;;;5031447;28;20171;-61
2021/12/16 07:13:39;;;;;;;25.80;14.20;;;7.80;99.90;;;;;;5031523;28;20387;-61
2021/12/16 07:16:05;;;;;;;23.42;12.77;;;7.80;99.90;;;;;;5031040;28;20053;-61
2021/12/16 07:18:31;;;;;;;25.70;14.43;;;7.90;99.90;;;;;;5030356;28;20134;-62
2021/12/16 07:20:57;;;;;;;20.10;12.38;;;8.00;99.90;;;;;;5031242;28;20456;-62
2021/12/16 07:23:23;;;;;;;19.10;13.20;;;8.00;99.90;;;;;;5031451;28;20026;-61
2021/12/16 07:25:49;;;;;;;22.20;13.70;;;8.10;99.90;;;;;;5031851;28;20056;-62
2021/12/16 07:28:16;;;;;;;25.85;13.38;;;8.10;99.90;;;;;;5031015;28;20246;-61
2021/12/16 07:30:44;;;;;;;22.13;13.20;;;8.10;99.90;;;;;;5029889;28;20045;-62
2021/12/16 07:33:12;;;;;;;21.95;13.68;;;8.20;99.90;;;;;;5030953;28;20025;-62
2021/12/16 07:35:40;;;;;;;23.35;14.75;;;8.10;99.90;;;;;;5031511;28;20030;-62
2021/12/16 07:38:06;;;;;;;20.42;15.05;;;8.00;99.90;;;;;;5030539;28;20151;-62
2021/12/16 07:40:33;;;;;;;21.48;13.88;;;8.00;99.90;;;;;;5031340;28;20075;-59
2021/12/16 07:45:43;;;;;;;22.20;14.13;;;7.90;99.90;;;;;;5031058;28;20309;-61
2021/12/16 07:48:12;;;;;;;18.98;13.88;;;8.00;99.90;;;;;;5030679;28;20040;-62
2021/12/16 07:50:40;;;;;;;22.27;13.50;;;7.90;99.90;;;;;;5030915;28;20425;-61
2021/12/16 07:53:06;;;;;;;20.80;13.02;;;7.80;99.90;;;;;;5030803;28;20025;-62
2021/12/16 07:55:33;;;;;;;22.70;14.20;;;7.70;99.90;;;;;;5030797;28;20422;-60
2021/12/16 07:57:59;;;;;;;21.10;14.18;;;7.70;99.90;;;;;;5030289;28;20033;-66
2021/12/16 08:00:29;;;;;;;21.52;14.15;;;7.80;99.90;;;;;;5030254;28;20120;-61
2021/12/16 08:02:55;;;;;;;20.88;13.82;;;7.80;99.90;;;;;;5029662;28;20497;-61
2021/12/16 08:05:24;;;;;;;30.33;14.75;;;7.90;99.90;;;;;;5030375;28;20048;-62
2021/12/16 08:07:49;;;;;;;21.95;14.02;;;7.90;99.90;;;;;;5030729;28;20467;-61
2021/12/16 08:10:20;;;;;;;24.00;14.52;;;7.70;99.90;;;;;;5028692;28;20060;-59
2021/12/16 08:12:46;;;;;;;21.48;13.00;;;7.90;99.90;;;;;;5029481;28;20170;-61
2021/12/16 08:15:14;;;;;;;23.25;13.77;;;7.90;99.90;;;;;;5030085;28;20067;-65
2021/12/16 08:17:40;;;;;;;22.15;13.73;;;8.00;99.90;;;;;;5029215;28;20113;-61
2021/12/16 08:20:07;;;;;;;22.35;13.80;;;8.00;99.90;;;;;;5028613;28;20053;-62
2021/12/16 08:22:33;;;;;;;24.20;13.98;;;8.30;99.90;;;;;;5030658;28;20072;-61
2021/12/16 08:24:59;;;;;;;20.67;13.20;;;8.30;99.90;;;;;;5030425;28;20084;-61
2021/12/16 08:27:25;;;;;;;20.42;14.52;;;8.30;99.90;;;;;;5033475;28;20025;-61
2021/12/16 08:29:50;;;;;;;23.13;14.05;;;8.20;99.90;;;;;;5032738;28;20040;-61
2021/12/16 08:32:16;;;;;;;24.05;14.98;;;8.30;99.90;;;;;;5032639;28;20025;-61
2021/12/16 08:34:45;;;;;;;23.45;14.48;;;8.40;99.90;;;;;;5034691;28;20029;-61
2021/12/16 08:37:13;;;;;;;26.42;15.40;;;8.40;99.90;;;;;;5033958;28;20021;-62
2021/12/16 08:39:39;;;;;;;22.08;14.10;;;8.50;99.90;;;;;;5034252;28;20028;-62
2021/12/16 08:42:07;;;;;;;20.52;14.73;;;8.50;99.90;;;;;;5033052;28;20026;-61
2021/12/16 08:44:32;;;;;;;23.98;14.68;;;8.40;99.90;;;;;;5032594;28;20030;-57
2021/12/16 08:47:03;;;;;;;21.38;13.45;;;8.50;99.90;;;;;;5033985;28;20477;-62
2021/12/16 08:49:29;;;;;;;30.90;14.73;;;8.50;99.90;;;;;;5033524;28;20386;-61
2021/12/16 08:51:57;;;;;;;22.45;14.18;;;8.70;99.90;;;;;;5033715;28;20033;-61
2021/12/16 08:54:23;;;;;;;22.65;13.43;;;8.70;99.90;;;;;;5033321;28;20045;-60
2021/12/16 08:56:50;;;;;;;25.08;15.07;;;8.60;99.90;;;;;;5034048;28;20070;-59
2021/12/16 08:59:16;;;;;;;23.05;14.52;;;8.70;99.90;;;;;;5033233;28;20033;-59
2021/12/16 09:01:48;;;;;;;25.73;15.10;;;8.70;99.90;;;;;;5032626;28;20025;-61
2021/12/16 09:04:16;;;;;;;25.80;15.55;;;8.80;99.90;;;;;;5031883;28;20103;-61
2021/12/16 09:06:42;;;;;;;21.63;13.27;;;8.80;99.90;;;;;;5033719;28;20087;-62
2021/12/16 09:09:09;;;;;;;27.00;14.52;;;8.80;99.90;;;;;;5032928;28;20088;-62
2021/12/16 09:11:41;;;;;;;22.35;13.68;;;9.00;99.90;;;;;;5033791;28;20030;-61
2021/12/16 09:14:07;;;;;;;20.85;14.10;;;9.10;99.90;;;;;;5033152;28;20026;-62
2021/12/16 09:16:35;;;;;;;24.63;14.95;;;9.20;99.90;;;;;;5032339;28;20044;-58
2021/12/16 09:19:02;;;;;;;23.65;14.15;;;9.30;99.90;;;;;;5032807;28;20049;-61
2021/12/16 09:21:31;;;;;;;25.58;14.02;;;9.50;99.90;;;;;;5032198;28;20033;-61
2021/12/16 09:23:59;;;;;;;24.10;15.45;;;9.50;99.90;;;;;;5032653;28;20112;-60
2021/12/16 09:26:25;;;;;;;29.20;16.33;;;10.00;99.90;;;;;;5030204;28;20041;-61
2021/12/16 09:28:52;;;;;;;26.48;14.18;;;9.80;99.90;;;;;;5031960;28;20049;-61
2021/12/16 09:31:21;;;;;;;24.58;13.85;;;9.90;99.90;;;;;;5030988;28;20492;-61
2021/12/16 09:33:51;;;;;;;19.52;14.32;;;9.60;99.90;;;;;;5030155;28;20022;-60
2021/12/16 09:36:19;;;;;;;25.05;14.55;;;9.70;99.90;;;;;;5031197;28;20036;-62
2021/12/16 09:38:46;;;;;;;19.38;12.48;;;10.70;99.90;;;;;;5031771;28;20053;-61
2021/12/16 09:41:12;;;;;;;25.83;13.95;;;11.60;99.90;;;;;;5031142;28;20065;-62
2021/12/16 09:43:41;;;;;;;23.20;13.07;;;12.40;99.90;;;;;;5032002;28;20061;-61
2021/12/16 09:46:10;;;;;;;19.75;13.32;;;12.10;99.90;;;;;;5031219;28;20024;-61
2021/12/16 09:48:37;;;;;;;18.23;13.10;;;11.60;99.90;;;;;;5031944;28;20414;-62
2021/12/16 09:51:07;;;;;;;17.70;13.25;;;11.60;99.90;;;;;;5031375;28;20028;-61
2021/12/16 09:53:38;;;;;;;19.25;13.40;;;10.90;99.90;;;;;;5030691;28;20030;-61
2021/12/16 09:56:09;;;;;;;17.15;13.80;;;10.30;99.90;;;;;;5031427;28;20029;-76
2021/12/16 09:58:39;;;;;;;22.63;14.00;;;10.10;99.90;;;;;;5030607;28;20116;-61
2021/12/16 10:01:05;;;;;;;19.20;13.20;;;10.20;99.90;;;;;;5030082;28;20030;-74
2021/12/16 10:03:31;;;;;;;23.17;12.90;;;10.70;99.90;;;;;;5031357;28;20127;-61
2021/12/16 10:05:57;;;;;;;22.25;13.70;;;11.30;99.90;;;;;;5031206;28;20467;-61
2021/12/16 10:08:23;;;;;;;20.10;14.25;;;11.50;99.90;;;;;;5027138;28;20025;-61
2021/12/16 10:10:49;;;;;;;25.88;13.63;;;12.10;99.90;;;;;;5011474;28;20502;-61
2021/12/16 10:13:22;;;;;;;18.70;12.23;;;12.20;99.90;;;;;;5010878;28;20057;-61
2021/12/16 10:18:20;;;;;;;19.40;12.68;;;11.50;99.90;;;;;;4955357;28;1742183;-62
2021/12/16 10:20:59;;;;;;;19.05;12.88;;;11.00;99.90;;;;;;5030741;28;20482;-61
2021/12/16 10:23:32;;;;;;;23.00;13.32;;;10.70;99.90;;;;;;5030856;28;20025;-65
2021/12/16 10:26:02;;;;;;;35.72;15.63;;;10.40;99.90;;;;;;5018263;28;20444;-61
2021/12/16 10:28:43;;;;;;;15.55;11.75;;;10.30;99.90;;;;;;5010313;28;20087;-59
2021/12/16 10:31:11;;;;;;;24.25;14.57;;;10.00;99.90;;;;;;5014714;28;20124;-62
2021/12/16 10:33:37;;;;;;;21.85;13.90;;;9.90;99.90;;;;;;5020913;28;20108;-61
2021/12/16 10:36:05;;;;;;;18.83;13.93;;;9.90;99.90;;;;;;5026472;28;20452;-56
2021/12/16 10:38:36;;;;;;;19.08;12.95;;;9.70;99.90;;;;;;5031019;28;20267;-61
2021/12/16 10:41:02;;;;;;;27.98;14.75;;;9.70;99.90;;;;;;5030143;28;20025;-61
2021/12/16 10:43:40;;;;;;;23.38;14.25;;;9.60;99.90;;;;;;5030890;28;20037;-62
2021/12/16 10:46:12;;;;;;;24.10;14.88;;;9.70;99.90;;;;;;5031066;28;20034;-60
2021/12/16 10:48:50;;;;;;;27.55;14.38;;;9.70;99.90;;;;;;5029916;28;20396;-61
2021/12/16 10:51:32;;;;;;;23.92;14.30;;;9.70;99.90;;;;;;5030191;28;20102;-61
2021/12/16 10:54:06;;;;;;;29.60;14.98;;;9.80;99.90;;;;;;5021639;28;20136;-62
2021/12/16 10:56:35;;;;;;;23.92;13.68;;;9.80;99.90;;;;;;5011054;28;20040;-63
2021/12/16 10:59:13;;;;;;;18.45;12.90;;;9.60;99.90;;;;;;5031389;28;20026;-62
2021/12/16 11:01:44;;;;;;;26.90;14.05;;;9.60;99.90;;;;;;5031681;28;20120;-61
2021/12/16 11:04:19;;;;;;;22.35;12.93;;;9.70;99.90;;;;;;5026004;28;20030;-64
2021/12/16 11:06:59;;;;;;;22.95;14.75;;;9.80;99.90;;;;;;5018645;28;20025;-62
2021/12/16 11:10:06;;;;;;;18.55;13.13;;;10.00;99.90;;;;;;5030542;28;20033;-62
2021/12/16 11:12:43;;;;;;;23.05;14.32;;;9.90;99.90;;;;;;5021133;28;20526;-61
2021/12/16 11:15:14;;;;;;;24.25;14.60;;;9.90;99.90;;;;;;5012072;28;20052;-72
2021/12/16 11:18:10;;;;;;;20.63;13.95;;;10.00;99.90;;;;;;5027360;28;20083;-62
2021/12/16 11:20:47;;;;;;;23.23;15.15;;;10.10;99.90;;;;;;5014704;28;20049;-62
2021/12/16 11:23:20;;;;;;;25.15;14.15;;;10.00;99.90;;;;;;5028682;28;20068;-63
2021/12/16 11:25:52;;;;;;;19.45;13.45;;;10.00;99.90;;;;;;5030419;28;20091;-60
2021/12/16 11:28:23;;;;;;;28.02;15.02;;;10.00;99.90;;;;;;5028448;28;20055;-64
2021/12/16 11:31:02;;;;;;;22.52;14.30;;;10.20;99.90;;;;;;5028942;28;20045;-61
2021/12/16 11:33:38;;;;;;;32.28;15.95;;;10.10;99.90;;;;;;5030198;28;20475;-61
2021/12/16 11:36:13;;;;;;;24.10;14.90;;;10.00;99.90;;;;;;5031125;28;20049;-63
2021/12/16 11:38:47;;;;;;;28.20;14.48;;;10.00;99.90;;;;;;5030464;28;20041;-60
2021/12/16 11:41:18;;;;;;;21.92;14.63;;;10.00;99.90;;;;;;5030255;28;20064;-63
2021/12/16 11:44:05;;;;;;;21.75;14.45;;;10.00;99.90;;;;;;5029421;28;20022;-61
2021/12/16 11:46:39;;;;;;;23.73;16.08;;;10.00;99.90;;;;;;5015413;28;20044;-62
2021/12/16 11:49:14;;;;;;;21.40;14.07;;;10.00;99.90;;;;;;5010522;28;20522;-62
2021/12/16 11:51:54;;;;;;;19.90;12.88;;;10.00;99.90;;;;;;5021170;28;20052;-62
2021/12/16 11:54:25;;;;;;;22.13;13.60;;;10.00;99.90;;;;;;5021738;28;20045;-62
2021/12/16 11:57:00;;;;;;;21.10;14.98;;;10.10;99.90;;;;;;5027893;28;20033;-61
2021/12/16 11:59:36;;;;;;;25.70;14.70;;;10.20;99.90;;;;;;5028182;28;20037;-63
2021/12/16 12:02:03;;;;;;;21.88;14.32;;;10.20;99.90;;;;;;5028938;28;20048;-62
2021/12/16 12:04:35;;;;;;;22.58;15.07;;;10.20;99.90;;;;;;5029507;28;20057;-63
2021/12/16 12:07:13;;;;;;;22.77;14.27;;;10.20;99.90;;;;;;5030653;28;20521;-64
2021/12/16 12:09:44;;;;;;;27.15;14.82;;;10.20;99.90;;;;;;5030265;28;20048;-62
2021/12/16 12:12:10;;;;;;;26.55;15.15;;;10.10;99.90;;;;;;5029803;28;20125;-61
2021/12/16 12:14:37;;;;;;;30.02;15.25;;;10.10;99.90;;;;;;5029736;28;20087;-62
2021/12/16 12:17:07;;;;;;;28.60;16.60;;;10.20;99.90;;;;;;5029810;28;20060;-62
2021/12/16 12:19:39;;;;;;;15.32;8.98;;;10.20;99.90;;;;;;5019579;28;20727;-62
2021/12/16 12:22:05;;;;;;;;;;;11.00;99.90;;;;;;5029735;28;20030;-62
2021/12/16 12:24:44;;;;;;;19.58;13.55;;;11.70;99.90;;;;;;5029592;28;19905;-62
2021/12/16 12:27:17;;;;;;;23.13;15.55;;;11.60;99.90;;;;;;5029336;28;20029;-62
2021/12/16 12:29:53;;;;;;;19.40;13.65;;;11.30;99.90;;;;;;5029579;28;20056;-63
2021/12/16 12:32:27;;;;;;;23.08;14.70;;;11.00;99.90;;;;;;5028872;28;20164;-62
2021/12/16 12:35:07;;;;;;;28.63;16.35;;;10.80;99.90;;;;;;5029836;28;20368;-62
2021/12/16 12:37:38;;;;;;;28.25;14.77;;;10.50;99.90;;;;;;5028522;28;20101;-64
2021/12/16 12:40:17;;;;;;;22.88;14.55;;;10.50;99.90;;;;;;5030758;28;20104;-61
2021/12/16 12:42:45;;;;;;;27.27;14.55;;;10.20;99.90;;;;;;5031247;28;20109;-61
2021/12/16 12:45:14;;;;;;;22.25;15.32;;;10.10;99.90;;;;;;5028949;28;20032;-61
2021/12/16 12:47:44;;;;;;;23.70;15.07;;;9.90;99.90;;;;;;5024565;28;20124;-64
2021/12/16 12:50:13;;;;;;;21.75;14.25;;;10.00;99.90;;;;;;5026003;28;20026;-65
2021/12/16 12:52:39;;;;;;;30.95;14.27;;;10.10;99.90;;;;;;5024015;28;20092;-61
2021/12/16 12:55:13;;;;;;;20.33;14.18;;;10.20;99.90;;;;;;5029654;28;20112;-61
2021/12/16 12:57:41;;;;;;;20.13;13.63;;;10.00;99.90;;;;;;5027708;28;20044;-62
2021/12/16 13:00:27;;;;;;;22.08;13.77;;;10.10;99.90;;;;;;5029603;28;20074;-61
2021/12/16 13:03:11;;;;;;;22.20;13.02;;;10.10;99.90;;;;;;5027143;28;20224;-62
2021/12/16 13:05:37;;;;;;;20.55;13.15;;;10.10;99.90;;;;;;5029100;28;20033;-62
2021/12/16 13:08:09;;;;;;;25.90;13.70;;;10.20;99.90;;;;;;5029895;28;20475;-61
2021/12/16 13:10:43;;;;;;;24.10;14.48;;;10.20;99.90;;;;;;5028114;28;20022;-61
2021/12/16 13:27:20;;;;;;;22.65;13.20;;;10.00;99.90;;;;;;5033372;28;20139;-62
2021/12/16 13:30:07;;;;;;;10.15;7.38;;;9.90;99.90;;;;;;5032484;28;20053;-60
2021/12/16 13:32:45;;;;;;;34.55;15.35;;;10.30;99.90;;;;;;5032800;28;20470;-61
2021/12/16 13:37:49;;;;;;;24.85;13.85;;;10.50;99.90;;;;;;5032523;28;20136;-60
2021/12/16 13:40:14;;;;;;;25.05;13.98;;;10.40;99.90;;;;;;5032756;28;20032;-60
2021/12/16 13:42:53;;;;;;;18.08;13.75;;;10.30;99.90;;;;;;5031190;28;20029;-63
2021/12/16 13:45:26;;;;;;;32.70;15.48;;;10.20;99.90;;;;;;5029412;28;20025;-62
2021/12/16 14:05:22;;;;;;;24.95;14.05;;;10.70;99.90;;;;;;5032226;28;20112;-60
2021/12/16 14:07:58;;;;;;;24.95;12.98;;;10.70;99.90;;;;;;5031396;28;20029;-62
2021/12/16 14:10:52;;;;;;;22.15;13.52;;;10.50;99.90;;;;;;5032154;28;20036;-62
2021/12/16 14:16:31;;;;;;;21.45;13.55;;;10.20;99.90;;;;;;5031484;28;20443;-61
2021/12/16 14:42:35;;;;;;;24.65;15.27;;;10.00;99.90;;;;;;5029100;28;20407;-61
2021/12/16 14:45:15;;;;;;;27.73;14.02;;;10.10;99.90;;;;;;5012686;28;20037;-61
2021/12/16 14:50:44;;;;;;;33.25;15.68;;;10.00;99.90;;;;;;5029960;28;20127;-61
2021/12/16 14:53:26;;;;;;;29.63;15.90;;;9.90;99.90;;;;;;5029968;28;20104;-61
2021/12/16 14:55:57;;;;;;;21.70;14.80;;;10.00;99.90;;;;;;5027125;28;20463;-65
2021/12/16 14:58:24;;;;;;;27.17;13.98;;;10.00;99.90;;;;;;5029603;28;20030;-62
2021/12/16 15:01:07;;;;;;;23.15;14.63;;;10.00;99.90;;;;;;5029733;28;20426;-60
2021/12/16 15:03:39;;;;;;;25.38;15.25;;;10.10;99.90;;;;;;5026937;28;20042;-60
2021/12/16 15:06:10;;;;;;;22.67;14.50;;;10.00;99.90;;;;;;5028413;28;20037;-59
2021/12/16 15:08:45;;;;;;;20.25;13.48;;;10.00;99.90;;;;;;5028613;28;20063;-62
2021/12/16 15:11:16;;;;;;;20.55;13.65;;;10.00;99.90;;;;;;5028378;28;20029;-62
2021/12/16 15:13:49;;;;;;;21.60;13.27;;;10.00;99.90;;;;;;5026310;28;20117;-61
2021/12/16 15:36:32;;;;;;;21.80;13.60;;;9.80;99.90;;;;;;5028605;28;20025;-61
2021/12/16 15:44:20;;;;;;;24.83;14.65;;;9.80;99.90;;;;;;5029026;28;20140;-74
2021/12/16 15:46:50;;;;;;;24.45;15.65;;;9.90;99.90;;;;;;5029181;28;20032;-61
2021/12/16 15:49:15;;;;;;;26.52;13.40;;;9.80;99.90;;;;;;5027531;28;20435;-62
2021/12/16 15:51:41;;;;;;;31.30;15.07;;;9.80;99.90;;;;;;5028655;28;20033;-59
2021/12/16 15:54:10;;;;;;;27.83;14.48;;;9.80;99.90;;;;;;5026105;28;20168;-62
2021/12/16 15:56:38;;;;;;;26.73;14.60;;;9.70;99.90;;;;;;5025959;28;20029;-63
2021/12/16 15:59:08;;;;;;;24.42;14.30;;;9.80;99.90;;;;;;5026747;28;20022;-66
2021/12/16 16:01:38;;;;;;;25.23;14.30;;;9.80;99.90;;;;;;5042025;28;20363;-61
2021/12/16 16:04:14;;;;;;;24.60;13.82;;;9.80;99.90;;;;;;5027220;28;20057;-57
2021/12/16 16:06:45;;;;;;;25.05;13.90;;;10.50;99.90;;;;;;5027533;28;20105;-61
2021/12/16 16:09:11;;;;;;;25.93;13.40;;;10.50;99.90;;;;;;5029075;28;20041;-60
2021/12/16 16:11:51;;;;;;;27.45;13.70;;;10.50;99.90;;;;;;5027705;28;20033;-61
2021/12/16 16:14:18;;;;;;;22.98;12.98;;;10.70;99.90;;;;;;5026393;28;20036;-60
2021/12/16 16:16:49;;;;;;;24.63;12.13;;;10.60;99.90;;;;;;5026593;28;20100;-61
2021/12/16 16:19:26;;;;;;;22.38;13.90;;;10.40;99.90;;;;;;5012738;28;20137;-61
2021/12/16 16:21:55;;;;;;;22.73;13.00;;;10.20;99.90;;;;;;5028477;28;20045;-61
2021/12/16 16:24:30;;;;;;;22.83;13.25;;;10.20;99.90;;;;;;5029541;28;20087;-75
2021/12/16 16:26:58;;;;;;;24.15;12.68;;;10.10;99.90;;;;;;5030007;28;20047;-63
2021/12/16 16:29:26;;;;;;;26.85;12.70;;;10.00;99.90;;;;;;5028440;28;20884;-75
2021/12/16 16:31:53;;;;;;;25.02;14.10;;;10.00;99.90;;;;;;5028975;28;20112;-62
2021/12/16 16:34:25;;;;;;;22.23;13.27;;;10.00;99.90;;;;;;5028422;28;20354;-62
2021/12/16 16:36:57;;;;;;;30.15;13.65;;;9.90;99.90;;;;;;5028770;28;20048;-62
2021/12/16 16:39:28;;;;;;;26.73;13.98;;;9.90;99.90;;;;;;5029338;28;20037;-61